createdAt,value
2023-02-19T00:01:53.422Z,10.18
2023-02-19T00:04:22.614Z,10.16
2023-02-19T00:06:50.849Z,10.19
2023-02-19T00:09:19.936Z,10.18
2023-02-19T00:11:48.202Z,10.15
2023-02-19T00:14:19.148Z,10.12
2023-02-19T00:16:47.532Z,10.12
2023-02-19T00:19:20.510Z,10.13
2023-02-19T00:21:52.498Z,10.09
2023-02-19T00:24:21.764Z,10.11
2023-02-19T00:26:49.884Z,10.11
2023-02-19T00:29:20.702Z,10.12
2023-02-19T00:31:48.860Z,10.09
2023-02-19T00:34:17.133Z,10.09
2023-02-19T00:36:45.193Z,10.11
2023-02-19T00:39:15.683Z,10.13
2023-02-19T00:41:45.613Z,10.11
2023-02-19T00:44:13.946Z,10.08
2023-02-19T00:46:44.574Z,10.08
2023-02-19T00:49:17.493Z,10.09
2023-02-19T00:51:45.446Z,10.09
2023-02-19T00:54:13.582Z,10.06
2023-02-19T00:56:41.794Z,10.08
2023-02-19T00:59:10.737Z,10.12
2023-02-19T01:01:39.219Z,10.04
2023-02-19T01:04:07.398Z,10.05
2023-02-19T01:06:35.702Z,10.04
2023-02-19T01:09:05.704Z,10.05
2023-02-19T01:11:33.672Z,10.02
2023-02-19T01:14:02.524Z,10.02
2023-02-19T01:16:30.985Z,9.99
2023-02-19T01:18:59.153Z,9.98
2023-02-19T01:21:29.130Z,9.99
2023-02-19T01:23:58.343Z,9.97
2023-02-19T01:26:32.485Z,9.94
2023-02-19T01:29:01.863Z,9.95
2023-02-19T01:31:30.228Z,9.88
2023-02-19T01:34:00.957Z,9.91
2023-02-19T01:36:29.939Z,9.91
2023-02-19T01:39:03.906Z,9.87
2023-02-19T01:41:32.888Z,9.84
2023-02-19T01:44:12.156Z,9.83
2023-02-19T01:46:42.554Z,9.81
2023-02-19T01:49:26.965Z,9.77
2023-02-19T01:52:17.829Z,9.77
2023-02-19T01:54:47.852Z,9.75
2023-02-19T01:57:22.068Z,9.74
2023-02-19T01:59:54.822Z,9.75
2023-02-19T02:02:25.086Z,9.71
2023-02-19T02:04:53.139Z,9.74
2023-02-19T02:07:40.228Z,9.71
2023-02-19T02:10:20.848Z,9.74
2023-02-19T02:12:50.121Z,9.71
2023-02-19T02:15:18.743Z,9.71
2023-02-19T02:18:00.367Z,9.69
2023-02-19T02:20:58.459Z,9.69
2023-02-19T02:24:00.056Z,9.69
2023-02-19T02:26:48.745Z,9.69
2023-02-19T02:29:35.652Z,9.67
2023-02-19T02:32:04.655Z,9.69
2023-02-19T02:34:45.362Z,9.71
2023-02-19T02:37:14.600Z,9.71
2023-02-19T02:39:44.591Z,9.74
2023-02-19T02:42:28.464Z,9.73
2023-02-19T02:45:36.938Z,9.71
2023-02-19T02:48:34.475Z,9.70
2023-02-19T02:51:28.884Z,9.69
2023-02-19T02:54:50.303Z,9.70
2023-02-19T02:57:20.716Z,9.67
2023-02-19T02:59:56.355Z,9.67
2023-02-19T03:02:29.004Z,9.63
2023-02-19T03:05:34.295Z,9.63
2023-02-19T03:08:13.812Z,9.64
2023-02-19T03:10:44.807Z,9.67
2023-02-19T03:13:43.469Z,9.63
2023-02-19T03:16:39.741Z,9.69
2023-02-19T03:19:20.692Z,9.64
2023-02-19T03:22:01.833Z,9.61
2023-02-19T03:25:00.037Z,9.57
2023-02-19T03:27:30.385Z,9.58
2023-02-19T03:30:01.756Z,9.61
2023-02-19T03:32:59.020Z,9.60
2023-02-19T03:35:43.828Z,9.63
2023-02-19T03:38:19.614Z,9.58
2023-02-19T03:40:55.975Z,9.60
2023-02-19T03:43:42.362Z,9.57
2023-02-19T03:46:23.339Z,9.58
2023-02-19T03:49:01.489Z,9.60
2023-02-19T03:51:50.914Z,9.61
2023-02-19T03:54:30.269Z,9.56
2023-02-19T03:57:15.456Z,9.57
2023-02-19T04:00:20.095Z,9.58
2023-02-19T04:02:57.759Z,9.58
2023-02-19T04:05:30.308Z,9.56
2023-02-19T04:08:03.790Z,9.54
2023-02-19T04:10:38.638Z,9.50
2023-02-19T04:13:12.991Z,9.44
2023-02-19T04:15:43.142Z,9.43
2023-02-19T04:18:18.919Z,9.43
2023-02-19T04:20:48.205Z,9.39
2023-02-19T04:23:20.488Z,9.40
2023-02-19T04:25:56.632Z,9.39
2023-02-19T04:28:24.523Z,9.38
2023-02-19T04:30:52.456Z,9.38
2023-02-19T04:33:20.275Z,9.36
2023-02-19T04:35:48.176Z,9.38
2023-02-19T04:38:16.111Z,9.39
2023-02-19T04:40:44.088Z,9.40
2023-02-19T04:43:11.924Z,9.42
2023-02-19T04:45:40.092Z,9.39
2023-02-19T04:48:08.686Z,9.36
2023-02-19T04:50:39.565Z,9.36
2023-02-19T04:53:08.222Z,9.38
2023-02-19T04:55:39.480Z,9.40
2023-02-19T04:58:07.378Z,9.38
2023-02-19T05:00:35.205Z,9.36
2023-02-19T05:03:03.128Z,9.35
2023-02-19T05:05:30.975Z,9.32
2023-02-19T05:07:58.835Z,9.30
2023-02-19T05:10:26.672Z,9.28
2023-02-19T05:12:57.891Z,9.29
2023-02-19T05:15:25.822Z,9.25
2023-02-19T05:17:53.644Z,9.25
2023-02-19T05:20:22.950Z,9.25
2023-02-19T05:22:51.265Z,9.23
2023-02-19T05:25:19.198Z,9.22
2023-02-19T05:27:47.148Z,9.23
2023-02-19T05:30:14.899Z,9.18
2023-02-19T05:32:42.720Z,9.16
2023-02-19T05:35:10.614Z,9.14
2023-02-19T05:37:38.405Z,9.15
2023-02-19T05:40:06.551Z,9.15
2023-02-19T05:42:34.352Z,9.14
2023-02-19T05:45:02.157Z,9.11
2023-02-19T05:47:30.023Z,9.08
2023-02-19T05:49:57.862Z,9.11
2023-02-19T05:52:25.639Z,9.11
2023-02-19T05:54:53.430Z,9.10
2023-02-19T05:57:21.619Z,9.10
2023-02-19T05:59:49.442Z,9.10
2023-02-19T06:02:17.447Z,9.08
2023-02-19T06:04:45.366Z,9.11
2023-02-19T06:07:13.409Z,9.10
2023-02-19T06:09:41.202Z,9.08
2023-02-19T06:12:09.032Z,9.07
2023-02-19T06:14:36.896Z,9.07
2023-02-19T06:17:04.702Z,9.04
2023-02-19T06:19:32.521Z,9.01
2023-02-19T06:22:00.415Z,9.01
2023-02-19T06:24:28.309Z,8.98
2023-02-19T06:26:56.250Z,8.97
2023-02-19T06:29:24.471Z,8.95
2023-02-19T06:31:52.618Z,8.95
2023-02-19T06:34:20.600Z,8.94
2023-02-19T06:36:49.976Z,8.92
2023-02-19T06:39:17.861Z,8.89
2023-02-19T06:41:45.712Z,8.87
2023-02-19T06:44:13.609Z,8.87
2023-02-19T06:46:41.750Z,8.88
2023-02-19T06:49:09.782Z,8.85
2023-02-19T06:51:37.625Z,8.87
2023-02-19T06:54:05.474Z,8.88
2023-02-19T06:56:35.713Z,8.85
2023-02-19T06:59:07.348Z,8.87
2023-02-19T07:01:36.264Z,8.88
2023-02-19T07:04:05.054Z,8.87
2023-02-19T07:06:34.271Z,8.88
2023-02-19T07:09:03.018Z,8.85
2023-02-19T07:11:33.243Z,8.84
2023-02-19T07:14:04.151Z,8.83
2023-02-19T07:16:32.264Z,8.81
2023-02-19T07:19:00.668Z,8.81
2023-02-19T07:21:29.609Z,8.81
2023-02-19T07:23:57.986Z,8.84
2023-02-19T07:26:26.043Z,8.84
2023-02-19T07:28:53.918Z,8.84
2023-02-19T07:31:23.982Z,8.87
2023-02-19T07:33:52.109Z,8.87
2023-02-19T07:36:21.666Z,8.83
2023-02-19T07:38:58.203Z,8.83
2023-02-19T07:41:27.285Z,8.81
2023-02-19T07:43:58.768Z,8.81
2023-02-19T07:46:26.994Z,8.81
2023-02-19T07:48:54.863Z,8.81
2023-02-19T07:51:23.038Z,8.81
2023-02-19T07:53:51.329Z,8.83
2023-02-19T07:56:20.610Z,8.80
2023-02-19T07:58:48.527Z,8.78
2023-02-19T08:01:40.408Z,8.80
2023-02-19T08:04:09.032Z,8.80
2023-02-19T08:06:36.912Z,8.83
2023-02-19T08:09:05.702Z,8.87
2023-02-19T08:11:52.446Z,8.83
2023-02-19T08:14:23.898Z,8.85
2023-02-19T08:16:52.689Z,8.85
2023-02-19T08:19:20.908Z,8.87
2023-02-19T08:21:48.803Z,8.85
2023-02-19T08:24:16.716Z,8.87
2023-02-19T08:26:44.650Z,8.85
2023-02-19T08:29:12.510Z,8.84
2023-02-19T08:31:40.494Z,8.88
2023-02-19T08:34:08.440Z,8.88
2023-02-19T08:36:36.433Z,8.87
2023-02-19T08:39:04.262Z,8.84
2023-02-19T08:41:32.105Z,8.87
2023-02-19T08:43:59.948Z,8.89
2023-02-19T08:46:27.796Z,8.68
2023-02-19T08:48:55.606Z,8.49
2023-02-19T08:51:23.490Z,8.40
2023-02-19T08:53:51.729Z,8.42
2023-02-19T08:56:19.830Z,8.38
2023-02-19T08:58:47.634Z,8.36
2023-02-19T09:01:18.816Z,8.39
2023-02-19T09:03:47.068Z,8.30
2023-02-19T09:06:20.546Z,8.39
2023-02-19T09:08:48.619Z,8.33
2023-02-19T09:11:17.115Z,8.40
2023-02-19T09:13:45.534Z,8.52
2023-02-19T09:16:14.076Z,8.53
2023-02-19T09:18:42.066Z,8.47
2023-02-19T09:21:10.255Z,8.25
2023-02-19T09:23:38.372Z,8.21
2023-02-19T09:26:10.138Z,8.08
2023-02-19T09:28:41.894Z,7.99
2023-02-19T09:31:13.988Z,7.95
2023-02-19T09:33:47.069Z,7.90
2023-02-19T09:36:16.320Z,7.78
2023-02-19T09:38:44.322Z,7.77
2023-02-19T09:41:30.828Z,7.60
2023-02-19T09:44:00.325Z,7.66
2023-02-19T09:46:33.559Z,7.60
2023-02-19T09:49:21.246Z,7.59
2023-02-19T09:52:38.054Z,7.60
2023-02-19T09:55:24.011Z,7.73
2023-02-19T09:57:52.796Z,7.67
2023-02-19T10:00:26.578Z,7.69
2023-02-19T10:03:30.531Z,7.62
2023-02-19T10:06:01.865Z,7.64
2023-02-19T10:08:33.142Z,7.71
2023-02-19T10:11:03.242Z,7.70
2023-02-19T10:13:43.965Z,7.62
2023-02-19T10:16:19.621Z,7.59
2023-02-19T10:18:47.858Z,7.63
2023-02-19T10:21:25.695Z,7.53
2023-02-19T10:24:02.817Z,7.52
2023-02-19T10:26:36.480Z,7.57
2023-02-19T10:29:05.993Z,7.73
2023-02-19T10:31:34.169Z,7.80
2023-02-19T10:34:03.059Z,7.90
2023-02-19T10:36:37.208Z,7.97
2023-02-19T10:39:21.891Z,7.87
2023-02-19T10:41:51.641Z,7.87
2023-02-19T10:44:24.152Z,7.91
2023-02-19T10:46:55.514Z,7.80
2023-02-19T10:49:32.105Z,7.77
2023-02-19T10:52:17.618Z,7.87
2023-02-19T10:54:46.591Z,7.88
2023-02-19T10:57:25.775Z,7.92
2023-02-19T11:00:03.936Z,8.04
2023-02-19T11:02:32.380Z,8.09
2023-02-19T11:05:20.451Z,8.26
2023-02-19T11:07:57.022Z,8.15
2023-02-19T11:10:28.898Z,8.32
2023-02-19T11:13:12.425Z,8.50
2023-02-19T11:15:41.674Z,8.54
2023-02-19T11:18:24.533Z,8.56
2023-02-19T11:20:55.670Z,8.61
2023-02-19T11:23:36.248Z,8.50
2023-02-19T11:26:17.744Z,8.46
2023-02-19T11:28:46.005Z,8.33
2023-02-19T11:31:22.485Z,8.15
2023-02-19T11:33:57.222Z,8.11
2023-02-19T11:36:34.805Z,8.04
2023-02-19T11:39:17.510Z,8.05
2023-02-19T11:42:08.436Z,7.91
2023-02-19T11:45:04.438Z,8.02
2023-02-19T11:47:56.813Z,8.13
2023-02-19T11:50:51.954Z,7.91
2023-02-19T11:53:29.409Z,7.80
2023-02-19T11:56:13.782Z,7.63
2023-02-19T11:58:53.327Z,7.67
2023-02-19T12:01:40.099Z,7.49
2023-02-19T12:04:22.756Z,7.62
2023-02-19T12:06:59.604Z,7.59
2023-02-19T12:09:37.761Z,7.73
2023-02-19T12:12:13.968Z,7.69
2023-02-19T12:15:15.958Z,7.75
2023-02-19T12:18:24.463Z,7.78
2023-02-19T12:21:04.535Z,7.88
2023-02-19T12:23:56.630Z,7.94
2023-02-19T12:26:51.827Z,7.81
2023-02-19T12:29:52.240Z,7.85
2023-02-19T12:32:49.573Z,7.81
2023-02-19T12:35:36.640Z,7.80
2023-02-19T12:38:13.386Z,7.77
2023-02-19T12:41:06.213Z,7.84
2023-02-19T12:43:34.730Z,7.95
2023-02-19T12:46:08.908Z,7.88
2023-02-19T12:48:39.597Z,7.83
2023-02-19T12:51:22.609Z,7.74
2023-02-19T12:53:57.411Z,7.80
2023-02-19T12:56:28.863Z,7.77
2023-02-19T12:59:03.328Z,7.80
2023-02-19T13:01:45.532Z,7.69
2023-02-19T13:04:38.364Z,7.74
2023-02-19T13:07:11.991Z,7.83
2023-02-19T13:09:50.972Z,7.83
2023-02-19T13:12:37.069Z,7.92
2023-02-19T13:15:17.238Z,7.87
2023-02-19T13:17:49.212Z,7.94
2023-02-19T13:20:24.838Z,7.92
2023-02-19T13:23:36.015Z,7.99
2023-02-19T13:26:22.252Z,7.87
2023-02-19T13:29:20.243Z,7.88
2023-02-19T13:32:15.272Z,7.94
2023-02-19T13:35:01.978Z,7.94
2023-02-19T13:37:34.863Z,8.02
2023-02-19T13:40:30.371Z,8.08
2023-02-19T13:43:05.454Z,7.95
2023-02-19T13:45:42.479Z,7.84
2023-02-19T13:48:28.305Z,7.88
2023-02-19T13:51:37.946Z,7.98
2023-02-19T13:54:20.529Z,8.02
2023-02-19T13:56:48.849Z,8.09
2023-02-19T13:59:38.680Z,8.25
2023-02-19T14:02:11.739Z,8.40
2023-02-19T14:04:51.721Z,8.42
2023-02-19T14:07:22.951Z,8.50
2023-02-19T14:09:51.095Z,8.60
2023-02-19T14:12:22.587Z,8.63
2023-02-19T14:14:54.887Z,8.70
2023-02-19T14:17:25.834Z,8.70
2023-02-19T14:20:18.098Z,8.60
2023-02-19T14:22:46.243Z,8.47
2023-02-19T14:25:31.208Z,8.53
2023-02-19T14:28:17.114Z,8.59
2023-02-19T14:30:56.064Z,8.61
2023-02-19T14:33:30.312Z,8.61
2023-02-19T14:36:29.614Z,8.64
2023-02-19T14:39:19.693Z,8.73
2023-02-19T14:42:02.661Z,8.64
2023-02-19T14:44:47.306Z,8.45
2023-02-19T14:47:21.217Z,8.42
2023-02-19T14:50:02.940Z,8.39
2023-02-19T14:52:41.014Z,8.35
2023-02-19T14:55:15.667Z,8.35
2023-02-19T14:57:46.833Z,8.30
2023-02-19T15:00:37.252Z,8.36
2023-02-19T15:03:06.221Z,8.33
2023-02-19T15:05:36.858Z,8.29
2023-02-19T15:08:17.381Z,8.21
2023-02-19T15:10:47.496Z,8.19
2023-02-19T15:13:23.942Z,8.26
2023-02-19T15:15:53.220Z,8.32
2023-02-19T15:18:27.477Z,8.26
2023-02-19T15:21:04.620Z,8.24
2023-02-19T15:23:34.429Z,8.28
2023-02-19T15:26:02.639Z,8.26
2023-02-19T15:28:33.153Z,8.24
2023-02-19T15:31:02.127Z,8.24
2023-02-19T15:33:30.186Z,8.24
2023-02-19T15:36:01.391Z,8.25
2023-02-19T15:38:30.418Z,8.28
2023-02-19T15:40:58.956Z,8.29
2023-02-19T15:43:29.745Z,8.21
2023-02-19T15:46:04.016Z,8.19
2023-02-19T15:48:40.736Z,8.18
2023-02-19T15:51:15.877Z,8.16
2023-02-19T15:53:49.123Z,8.11
2023-02-19T15:56:39.863Z,8.08
2023-02-19T15:59:20.907Z,8.08
2023-02-19T16:01:48.947Z,8.08
2023-02-19T16:04:18.974Z,8.08
2023-02-19T16:07:01.682Z,8.08
2023-02-19T16:09:32.644Z,7.99
2023-02-19T16:12:02.285Z,7.98
2023-02-19T16:14:37.080Z,8.01
2023-02-19T16:17:10.376Z,7.99
2023-02-19T16:19:48.963Z,7.97
2023-02-19T16:22:28.220Z,7.94
2023-02-19T16:24:57.262Z,7.90
2023-02-19T16:27:40.098Z,7.94
2023-02-19T16:30:25.786Z,7.94
2023-02-19T16:33:36.813Z,7.91
2023-02-19T16:36:37.903Z,7.87
2023-02-19T16:39:08.630Z,7.83
2023-02-19T16:41:45.073Z,7.78
2023-02-19T16:44:25.795Z,7.73
2023-02-19T16:47:00.521Z,7.71
2023-02-19T16:49:28.544Z,7.66
2023-02-19T16:51:56.967Z,7.60
2023-02-19T16:54:24.824Z,7.62
2023-02-19T16:56:52.674Z,7.57
2023-02-19T16:59:20.500Z,7.52
2023-02-19T17:01:48.417Z,7.49
2023-02-19T17:04:16.378Z,7.49
2023-02-19T17:06:45.633Z,7.43
2023-02-19T17:09:13.526Z,7.45
2023-02-19T17:11:41.366Z,7.45
2023-02-19T17:14:09.301Z,7.45
2023-02-19T17:16:40.617Z,7.46
2023-02-19T17:19:14.551Z,7.46
2023-02-19T17:21:43.107Z,7.38
2023-02-19T17:24:11.593Z,7.38
2023-02-19T17:26:39.641Z,7.39
2023-02-19T17:29:13.813Z,7.36
2023-02-19T17:31:42.073Z,7.32
2023-02-19T17:34:10.181Z,7.32
2023-02-19T17:36:38.214Z,7.33
2023-02-19T17:39:11.943Z,7.29
2023-02-19T17:41:39.888Z,7.25
2023-02-19T17:44:07.739Z,7.29
2023-02-19T17:46:35.888Z,7.28
2023-02-19T17:49:03.960Z,7.26
2023-02-19T17:51:31.965Z,7.32
2023-02-19T17:54:00.379Z,7.32
2023-02-19T17:56:29.324Z,7.30
2023-02-19T17:58:58.437Z,7.30
2023-02-19T18:01:26.581Z,7.25
2023-02-19T18:03:54.660Z,7.29
2023-02-19T18:06:22.758Z,7.28
2023-02-19T18:08:52.492Z,7.29
2023-02-19T18:11:22.248Z,7.26
2023-02-19T18:13:51.850Z,7.28
2023-02-19T18:16:20.571Z,7.25
2023-02-19T18:18:48.435Z,7.25
2023-02-19T18:21:16.637Z,7.19
2023-02-19T18:23:46.036Z,7.21
2023-02-19T18:26:18.962Z,7.18
2023-02-19T18:28:46.880Z,7.18
2023-02-19T18:31:15.408Z,7.18
2023-02-19T18:33:43.776Z,7.14
2023-02-19T18:36:12.570Z,7.12
2023-02-19T18:38:40.571Z,7.12
2023-02-19T18:41:14.354Z,7.09
2023-02-19T18:43:43.841Z,7.08
2023-02-19T18:46:11.940Z,7.09
2023-02-19T18:48:40.211Z,7.05
2023-02-19T18:51:12.149Z,7.11
2023-02-19T18:53:42.214Z,7.12
2023-02-19T18:56:10.210Z,7.14
2023-02-19T18:58:38.171Z,7.11
2023-02-19T19:01:05.935Z,7.09
2023-02-19T19:03:34.037Z,7.11
2023-02-19T19:06:01.929Z,7.07
2023-02-19T19:08:30.805Z,7.04
2023-02-19T19:10:58.728Z,6.98
2023-02-19T19:13:26.855Z,6.88
2023-02-19T19:15:54.891Z,6.85
2023-02-19T19:18:23.076Z,6.85
2023-02-19T19:20:51.079Z,6.85
2023-02-19T19:23:19.035Z,6.79
2023-02-19T19:25:46.994Z,6.77
2023-02-19T19:28:14.918Z,6.76
2023-02-19T19:30:42.843Z,6.79
2023-02-19T19:33:12.102Z,6.73
2023-02-19T19:35:41.942Z,6.73
2023-02-19T19:38:09.963Z,6.72
2023-02-19T19:40:37.875Z,6.73
2023-02-19T19:43:06.303Z,6.69
2023-02-19T19:45:34.286Z,6.62
2023-02-19T19:48:02.348Z,6.54
2023-02-19T19:50:30.666Z,6.46
2023-02-19T19:52:58.592Z,6.39
2023-02-19T19:55:26.428Z,6.30
2023-02-19T19:57:54.572Z,6.24
2023-02-19T20:00:24.464Z,6.17
2023-02-19T20:02:52.640Z,6.10
2023-02-19T20:05:20.908Z,6.04
2023-02-19T20:07:49.649Z,6.02
2023-02-19T20:10:19.984Z,5.97
2023-02-19T20:12:47.999Z,5.89
2023-02-19T20:15:23.482Z,5.87
2023-02-19T20:17:51.533Z,5.81
2023-02-19T20:20:19.757Z,5.77
2023-02-19T20:22:47.794Z,5.71
2023-02-19T20:25:16.174Z,5.63
2023-02-19T20:27:44.176Z,5.60
2023-02-19T20:30:13.908Z,5.60
2023-02-19T20:32:41.995Z,5.57
2023-02-19T20:35:10.208Z,5.53
2023-02-19T20:37:39.413Z,5.50
2023-02-19T20:40:09.164Z,5.49
2023-02-19T20:42:37.089Z,5.45
2023-02-19T20:45:06.062Z,5.42
2023-02-19T20:47:33.930Z,5.40
2023-02-19T20:50:01.763Z,5.36
2023-02-19T20:52:29.716Z,5.35
2023-02-19T20:54:57.826Z,5.34
2023-02-19T20:57:25.770Z,5.31
2023-02-19T20:59:53.902Z,5.31
2023-02-19T21:02:27.667Z,5.32
2023-02-19T21:04:56.978Z,5.29
2023-02-19T21:07:27.732Z,5.27
2023-02-19T21:09:55.834Z,5.22
2023-02-19T21:12:23.914Z,5.21
2023-02-19T21:14:53.310Z,5.19
2023-02-19T21:17:21.220Z,5.24
2023-02-19T21:19:50.296Z,5.19
2023-02-19T21:22:18.224Z,5.22
2023-02-19T21:24:49.623Z,5.22
2023-02-19T21:27:18.220Z,5.21
2023-02-19T21:29:46.995Z,5.18
2023-02-19T21:32:14.907Z,5.15
2023-02-19T21:34:43.173Z,5.15
2023-02-19T21:37:11.223Z,5.17
2023-02-19T21:39:39.152Z,5.17
2023-02-19T21:42:07.023Z,5.17
2023-02-19T21:44:35.083Z,5.17
2023-02-19T21:47:03.077Z,5.15
2023-02-19T21:49:31.020Z,5.15
2023-02-19T21:51:59.334Z,5.18
2023-02-19T21:54:27.738Z,5.14
2023-02-19T21:56:56.092Z,5.12
2023-02-19T21:59:24.309Z,5.12
2023-02-19T22:01:52.662Z,5.12
2023-02-19T22:04:24.591Z,5.12
2023-02-19T22:06:56.785Z,5.09
2023-02-19T22:09:25.358Z,5.12
2023-02-19T22:11:53.702Z,5.14
2023-02-19T22:14:22.152Z,5.12
2023-02-19T22:16:50.536Z,5.14
2023-02-19T22:19:19.071Z,5.14
2023-02-19T22:21:47.265Z,5.15
2023-02-19T22:24:19.096Z,5.11
2023-02-19T22:26:47.665Z,5.12
2023-02-19T22:29:16.473Z,5.09
2023-02-19T22:31:44.790Z,5.15
2023-02-19T22:34:13.551Z,5.11
2023-02-19T22:36:41.729Z,5.11
2023-02-19T22:39:23.367Z,5.12
2023-02-19T22:41:51.922Z,5.18
2023-02-19T22:44:20.391Z,5.15
2023-02-19T22:46:56.349Z,5.15
2023-02-19T22:49:25.122Z,5.18
2023-02-19T22:52:02.601Z,5.18
2023-02-19T22:54:30.478Z,5.19
2023-02-19T22:56:58.286Z,5.19
2023-02-19T22:59:26.240Z,5.21
2023-02-19T23:01:54.509Z,5.21
2023-02-19T23:04:23.818Z,5.24
2023-02-19T23:06:52.298Z,5.25
2023-02-19T23:09:23.110Z,5.31
2023-02-19T23:11:51.717Z,5.34
2023-02-19T23:14:21.162Z,5.38
2023-02-19T23:16:49.040Z,5.40
2023-02-19T23:19:17.050Z,5.45
2023-02-19T23:21:45.738Z,5.45
2023-02-19T23:24:14.610Z,5.49
2023-02-19T23:26:48.623Z,5.53
2023-02-19T23:29:19.793Z,5.55
2023-02-19T23:31:47.906Z,5.62
2023-02-19T23:34:16.630Z,5.63
2023-02-19T23:36:47.175Z,5.66
2023-02-19T23:39:17.426Z,5.67
2023-02-19T23:41:50.469Z,5.71
2023-02-19T23:44:19.470Z,5.70
2023-02-19T23:46:47.415Z,5.64
2023-02-19T23:49:15.249Z,5.64
2023-02-19T23:51:43.076Z,5.69
2023-02-19T23:54:11.758Z,5.66
2023-02-19T23:56:39.836Z,5.69
2023-02-19T23:59:07.723Z,5.71
